sensor_id;sensor_type;location;lat;lon;timestamp;pressure;altitude;pressure_sealevel;temperature;humidity
22649;BME280;11491;41.942;24.220;2023-12-20T00:00:22;90177.81;;;-1.90;81.06
22649;BME280;11491;41.942;24.220;2023-12-20T00:02:48;90163.66;;;-1.89;81.01
22649;BME280;11491;41.942;24.220;2023-12-20T00:05:15;90175.19;;;-1.85;80.85
22649;BME280;11491;41.942;24.220;2023-12-20T00:07:44;90164.44;;;-1.89;80.66
22649;BME280;11491;41.942;24.220;2023-12-20T00:10:10;90171.00;;;-1.81;80.51
22649;BME280;11491;41.942;24.220;2023-12-20T00:12:38;90162.09;;;-1.90;80.91
22649;BME280;11491;41.942;24.220;2023-12-20T00:15:06;90154.75;;;-1.99;80.39
22649;BME280;11491;41.942;24.220;2023-12-20T00:17:33;90151.56;;;-2.31;82.37
22649;BME280;11491;41.942;24.220;2023-12-20T00:20:00;90156.81;;;-2.31;83.40
22649;BME280;11491;41.942;24.220;2023-12-20T00:22:27;90154.19;;;-2.36;83.22
22649;BME280;11491;41.942;24.220;2023-12-20T00:24:55;90155.25;;;-2.22;82.72
22649;BME280;11491;41.942;24.220;2023-12-20T00:27:21;90142.69;;;-2.30;82.44
22649;BME280;11491;41.942;24.220;2023-12-20T00:29:48;90149.50;;;-2.09;82.60
22649;BME280;11491;41.942;24.220;2023-12-20T00:32:15;90148.47;;;-1.98;81.31
22649;BME280;11491;41.942;24.220;2023-12-20T00:34:42;90148.72;;;-1.94;80.99
22649;BME280;11491;41.942;24.220;2023-12-20T00:37:09;90136.13;;;-1.97;80.79
22649;BME280;11491;41.942;24.220;2023-12-20T00:39:36;90129.06;;;-2.02;81.38
22649;BME280;11491;41.942;24.220;2023-12-20T00:42:04;90135.34;;;-1.98;81.15
22649;BME280;11491;41.942;24.220;2023-12-20T00:44:31;90130.91;;;-2.18;81.05
22649;BME280;11491;41.942;24.220;2023-12-20T00:46:58;90131.69;;;-2.12;80.99
22649;BME280;11491;41.942;24.220;2023-12-20T00:49:25;90136.91;;;-2.17;81.01
22649;BME280;11491;41.942;24.220;2023-12-20T00:51:51;90122.75;;;-2.26;81.61
22649;BME280;11491;41.942;24.220;2023-12-20T00:54:18;90127.50;;;-2.18;81.09
22649;BME280;11491;41.942;24.220;2023-12-20T00:56:45;90115.44;;;-2.24;80.55
22649;BME280;11491;41.942;24.220;2023-12-20T00:59:13;90125.38;;;-2.21;81.73
22649;BME280;11491;41.942;24.220;2023-12-20T01:01:40;90115.69;;;-2.21;80.02
22649;BME280;11491;41.942;24.220;2023-12-20T01:04:07;90104.41;;;-2.21;80.24
22649;BME280;11491;41.942;24.220;2023-12-20T01:06:34;90116.47;;;-2.41;80.75
22649;BME280;11491;41.942;24.220;2023-12-20T01:09:00;90110.69;;;-2.48;80.95
22649;BME280;11491;41.942;24.220;2023-12-20T01:11:28;90108.09;;;-2.43;81.67
22649;BME280;11491;41.942;24.220;2023-12-20T01:13:54;90113.06;;;-2.36;81.04
22649;BME280;11491;41.942;24.220;2023-12-20T01:16:22;90108.34;;;-2.39;80.92
22649;BME280;11491;41.942;24.220;2023-12-20T01:18:49;90097.63;;;-2.38;80.85
22649;BME280;11491;41.942;24.220;2023-12-20T01:21:16;90096.84;;;-2.43;80.93
22649;BME280;11491;41.942;24.220;2023-12-20T01:23:43;90097.38;;;-2.36;81.25
22649;BME280;11491;41.942;24.220;2023-12-20T01:26:09;90092.91;;;-2.35;81.92
22649;BME280;11491;41.942;24.220;2023-12-20T01:28:37;90092.91;;;-2.30;80.95
22649;BME280;11491;41.942;24.220;2023-12-20T01:31:03;90096.06;;;-2.33;81.03
22649;BME280;11491;41.942;24.220;2023-12-20T01:33:31;90086.59;;;-2.29;79.68
22649;BME280;11491;41.942;24.220;2023-12-20T01:35:58;90080.59;;;-2.45;79.49
22649;BME280;11491;41.942;24.220;2023-12-20T01:38:25;90077.19;;;-2.46;80.27
22649;BME280;11491;41.942;24.220;2023-12-20T01:40:52;90074.53;;;-2.56;80.03
22649;BME280;11491;41.942;24.220;2023-12-20T01:43:18;90077.16;;;-2.61;80.04
22649;BME280;11491;41.942;24.220;2023-12-20T01:45:46;90056.72;;;-2.59;80.73
22649;BME280;11491;41.942;24.220;2023-12-20T01:48:14;90052.28;;;-2.69;80.99
22649;BME280;11491;41.942;24.220;2023-12-20T01:50:44;90053.09;;;-2.58;80.70
22649;BME280;11491;41.942;24.220;2023-12-20T01:53:12;90050.47;;;-2.58;80.67
22649;BME280;11491;41.942;24.220;2023-12-20T01:55:40;90047.84;;;-2.58;80.62
22649;BME280;11491;41.942;24.220;2023-12-20T01:58:08;90046.25;;;-2.54;80.42
22649;BME280;11491;41.942;24.220;2023-12-20T02:00:36;90040.25;;;-2.60;80.42
22649;BME280;11491;41.942;24.220;2023-12-20T02:03:04;90033.69;;;-2.62;80.76
22649;BME280;11491;41.942;24.220;2023-12-20T02:05:31;90026.91;;;-2.63;80.23
22649;BME280;11491;41.942;24.220;2023-12-20T02:07:59;90011.69;;;-2.61;79.58
22649;BME280;11491;41.942;24.220;2023-12-20T02:10:27;90027.41;;;-2.61;80.46
22649;BME280;11491;41.942;24.220;2023-12-20T02:12:54;90020.06;;;-2.79;80.49
22649;BME280;11491;41.942;24.220;2023-12-20T02:15:21;90020.59;;;-2.83;81.08
22649;BME280;11491;41.942;24.220;2023-12-20T02:17:49;90013.28;;;-2.70;80.64
22649;BME280;11491;41.942;24.220;2023-12-20T02:20:16;90017.72;;;-2.81;81.00
22649;BME280;11491;41.942;24.220;2023-12-20T02:22:44;90010.13;;;-2.77;82.14
22649;BME280;11491;41.942;24.220;2023-12-20T02:25:11;90011.16;;;-2.78;81.85
22649;BME280;11491;41.942;24.220;2023-12-20T02:27:38;90006.97;;;-2.95;82.32
22649;BME280;11491;41.942;24.220;2023-12-20T02:30:06;90010.63;;;-2.96;82.80
22649;BME280;11491;41.942;24.220;2023-12-20T02:32:33;90007.50;;;-2.77;82.00
22649;BME280;11491;41.942;24.220;2023-12-20T02:35:00;89982.34;;;-3.14;82.44
22649;BME280;11491;41.942;24.220;2023-12-20T02:37:26;89994.91;;;-3.06;82.92
22649;BME280;11491;41.942;24.220;2023-12-20T02:39:54;90008.53;;;-2.94;82.78
22649;BME280;11491;41.942;24.220;2023-12-20T02:42:21;89996.50;;;-2.90;82.49
22649;BME280;11491;41.942;24.220;2023-12-20T02:44:48;90002.28;;;-2.88;82.07
22649;BME280;11491;41.942;24.220;2023-12-20T02:47:15;89994.44;;;-2.93;83.16
22649;BME280;11491;41.942;24.220;2023-12-20T02:49:41;89981.84;;;-3.01;82.72
22649;BME280;11491;41.942;24.220;2023-12-20T02:52:08;89988.13;;;-3.02;82.96
22649;BME280;11491;41.942;24.220;2023-12-20T02:54:35;89986.81;;;-2.94;82.34
22649;BME280;11491;41.942;24.220;2023-12-20T02:57:03;89979.75;;;-2.99;82.10
22649;BME280;11491;41.942;24.220;2023-12-20T02:59:30;89972.97;;;-3.00;82.38
22649;BME280;11491;41.942;24.220;2023-12-20T03:01:57;89975.56;;;-3.05;82.11
22649;BME280;11491;41.942;24.220;2023-12-20T03:04:23;89981.34;;;-2.98;81.85
22649;BME280;11491;41.942;24.220;2023-12-20T03:06:50;89981.34;;;-2.88;81.34
22649;BME280;11491;41.942;24.220;2023-12-20T03:09:17;89970.06;;;-2.88;81.03
22649;BME280;11491;41.942;24.220;2023-12-20T03:11:44;89970.34;;;-3.10;81.21
22649;BME280;11491;41.942;24.220;2023-12-20T03:14:12;89969.81;;;-2.97;81.46
22649;BME280;11491;41.942;24.220;2023-12-20T03:16:38;89968.75;;;-3.06;81.80
22649;BME280;11491;41.942;24.220;2023-12-20T03:19:05;89969.25;;;-3.19;82.10
22649;BME280;11491;41.942;24.220;2023-12-20T03:21:32;89965.09;;;-3.15;82.31
22649;BME280;11491;41.942;24.220;2023-12-20T03:23:59;89957.75;;;-3.23;82.78
22649;BME280;11491;41.942;24.220;2023-12-20T03:26:25;89966.66;;;-3.25;83.08
22649;BME280;11491;41.942;24.220;2023-12-20T03:28:52;89966.13;;;-3.21;83.54
22649;BME280;11491;41.942;24.220;2023-12-20T03:31:20;89956.19;;;-3.14;83.65
22649;BME280;11491;41.942;24.220;2023-12-20T03:33:47;89959.34;;;-3.12;84.36
22649;BME280;11491;41.942;24.220;2023-12-20T03:36:14;89950.44;;;-3.01;82.50
22649;BME280;11491;41.942;24.220;2023-12-20T03:38:40;89943.38;;;-3.16;82.93
22649;BME280;11491;41.942;24.220;2023-12-20T03:41:07;89937.88;;;-3.09;82.87
22649;BME280;11491;41.942;24.220;2023-12-20T03:43:34;89946.00;;;-3.00;82.63
22649;BME280;11491;41.942;24.220;2023-12-20T03:46:01;89933.44;;;-3.09;82.91
22649;BME280;11491;41.942;24.220;2023-12-20T03:48:30;89941.56;;;-3.15;82.34
22649;BME280;11491;41.942;24.220;2023-12-20T03:50:57;89930.03;;;-3.14;83.81
22649;BME280;11491;41.942;24.220;2023-12-20T03:53:24;89941.56;;;-3.00;82.81
22649;BME280;11491;41.942;24.220;2023-12-20T03:55:50;89936.84;;;-3.03;82.40
22649;BME280;11491;41.942;24.220;2023-12-20T03:58:17;89943.13;;;-2.99;82.00
22649;BME280;11491;41.942;24.220;2023-12-20T04:00:44;89936.31;;;-3.00;81.00
22649;BME280;11491;41.942;24.220;2023-12-20T04:03:10;89945.19;;;-3.21;82.26
22649;BME280;11491;41.942;24.220;2023-12-20T04:05:40;89941.03;;;-3.17;82.62
22649;BME280;11491;41.942;24.220;2023-12-20T04:08:07;89934.75;;;-3.06;82.12
22649;BME280;11491;41.942;24.220;2023-12-20T04:10:34;89936.03;;;-3.09;82.01
22649;BME280;11491;41.942;24.220;2023-12-20T04:13:00;89929.25;;;-3.20;82.25
22649;BME280;11491;41.942;24.220;2023-12-20T04:15:27;89924.78;;;-3.25;82.29
22649;BME280;11491;41.942;24.220;2023-12-20T04:17:54;89923.72;;;-3.29;82.59
22649;BME280;11491;41.942;24.220;2023-12-20T04:20:21;89931.03;;;-3.46;83.85
22649;BME280;11491;41.942;24.220;2023-12-20T04:22:49;89925.81;;;-3.31;83.63
22649;BME280;11491;41.942;24.220;2023-12-20T04:25:15;89921.66;;;-3.27;82.94
22649;BME280;11491;41.942;24.220;2023-12-20T04:27:42;89922.72;;;-3.22;83.77
22649;BME280;11491;41.942;24.220;2023-12-20T04:30:09;89921.63;;;-3.37;84.10
22649;BME280;11491;41.942;24.220;2023-12-20T04:32:36;89907.50;;;-3.36;83.81
22649;BME280;11491;41.942;24.220;2023-12-20T04:35:04;89915.34;;;-3.41;84.04
22649;BME280;11491;41.942;24.220;2023-12-20T04:37:30;89911.19;;;-3.27;83.84
22649;BME280;11491;41.942;24.220;2023-12-20T04:39:58;89913.28;;;-3.23;83.49
22649;BME280;11491;41.942;24.220;2023-12-20T04:42:25;89913.25;;;-3.39;84.29
22649;BME280;11491;41.942;24.220;2023-12-20T04:44:52;89907.50;;;-3.26;84.19
22649;BME280;11491;41.942;24.220;2023-12-20T04:47:19;89895.50;;;-3.37;83.58
22649;BME280;11491;41.942;24.220;2023-12-20T04:49:45;89903.34;;;-3.32;84.09
22649;BME280;11491;41.942;24.220;2023-12-20T04:52:12;89899.16;;;-3.38;84.39
22649;BME280;11491;41.942;24.220;2023-12-20T04:54:39;89902.81;;;-3.39;83.66
22649;BME280;11491;41.942;24.220;2023-12-20T04:57:07;89892.88;;;-3.32;83.81
22649;BME280;11491;41.942;24.220;2023-12-20T04:59:33;89895.50;;;-3.27;83.66
22649;BME280;11491;41.942;24.220;2023-12-20T05:02:00;89898.09;;;-3.32;83.58
22649;BME280;11491;41.942;24.220;2023-12-20T05:04:27;89893.41;;;-3.35;83.49
22649;BME280;11491;41.942;24.220;2023-12-20T05:06:54;89888.94;;;-3.39;84.12
22649;BME280;11491;41.942;24.220;2023-12-20T05:09:20;89891.31;;;-3.33;83.94
22649;BME280;11491;41.942;24.220;2023-12-20T05:11:47;89886.59;;;-3.36;84.04
22649;BME280;11491;41.942;24.220;2023-12-20T05:14:15;89869.34;;;-3.27;83.85
22649;BME280;11491;41.942;24.220;2023-12-20T05:16:42;89876.66;;;-3.39;83.71
22649;BME280;11491;41.942;24.220;2023-12-20T05:19:08;89873.25;;;-3.39;84.57
22649;BME280;11491;41.942;24.220;2023-12-20T05:21:35;89876.13;;;-3.36;84.65
22649;BME280;11491;41.942;24.220;2023-12-20T05:24:02;89871.44;;;-3.29;84.08
22649;BME280;11491;41.942;24.220;2023-12-20T05:26:29;89874.03;;;-3.23;85.10
22649;BME280;11491;41.942;24.220;2023-12-20T05:28:56;89870.41;;;-3.12;84.23
22649;BME280;11491;41.942;24.220;2023-12-20T05:31:24;89867.25;;;-3.14;83.59
22649;BME280;11491;41.942;24.220;2023-12-20T05:33:50;89850.78;;;-3.35;84.33
22649;BME280;11491;41.942;24.220;2023-12-20T05:36:18;89860.97;;;-3.18;84.90
22649;BME280;11491;41.942;24.220;2023-12-20T05:38:45;89864.13;;;-3.27;85.21
22649;BME280;11491;41.942;24.220;2023-12-20T05:41:12;89846.88;;;-3.28;86.54
22649;BME280;11491;41.942;24.220;2023-12-20T05:43:38;89862.81;;;-3.14;85.41
22649;BME280;11491;41.942;24.220;2023-12-20T05:46:05;89848.69;;;-3.28;85.62
22649;BME280;11491;41.942;24.220;2023-12-20T05:48:33;89846.34;;;-3.30;85.32
22649;BME280;11491;41.942;24.220;2023-12-20T05:51:00;89852.09;;;-3.33;86.41
22649;BME280;11491;41.942;24.220;2023-12-20T05:53:27;89837.44;;;-3.34;86.28
22649;BME280;11491;41.942;24.220;2023-12-20T05:55:53;89841.63;;;-3.17;86.07
22649;BME280;11491;41.942;24.220;2023-12-20T05:58:20;89839.00;;;-3.12;85.73
22649;BME280;11491;41.942;24.220;2023-12-20T06:00:47;89814.69;;;-3.38;86.46
22649;BME280;11491;41.942;24.220;2023-12-20T06:03:14;89830.66;;;-3.25;85.87
22649;BME280;11491;41.942;24.220;2023-12-20T06:05:42;89833.50;;;-3.26;86.46
22649;BME280;11491;41.942;24.220;2023-12-20T06:08:09;89836.41;;;-3.22;86.30
22649;BME280;11491;41.942;24.220;2023-12-20T06:10:35;89837.94;;;-3.16;87.43
22649;BME280;11491;41.942;24.220;2023-12-20T06:13:02;89842.66;;;-3.13;87.25
22649;BME280;11491;41.942;24.220;2023-12-20T06:15:30;89841.09;;;-3.09;86.64
22649;BME280;11491;41.942;24.220;2023-12-20T06:17:56;89839.53;;;-3.05;86.45
22649;BME280;11491;41.942;24.220;2023-12-20T06:20:23;89845.78;;;-3.01;85.88
22649;BME280;11491;41.942;24.220;2023-12-20T06:22:51;89833.22;;;-2.89;85.82
22649;BME280;11491;41.942;24.220;2023-12-20T06:25:18;89831.94;;;-3.12;86.96
22649;BME280;11491;41.942;24.220;2023-12-20T06:27:45;89835.31;;;-2.96;86.93
22649;BME280;11491;41.942;24.220;2023-12-20T06:30:12;89831.63;;;-2.79;86.42
22649;BME280;11491;41.942;24.220;2023-12-20T06:32:38;89833.19;;;-2.84;86.48
22649;BME280;11491;41.942;24.220;2023-12-20T06:35:08;89832.16;;;-2.83;86.57
22649;BME280;11491;41.942;24.220;2023-12-20T06:37:35;89825.84;;;-2.66;86.88
22649;BME280;11491;41.942;24.220;2023-12-20T06:40:03;89836.81;;;-2.59;86.54
22649;BME280;11491;41.942;24.220;2023-12-20T06:42:30;89813.75;;;-2.47;87.38
22649;BME280;11491;41.942;24.220;2023-12-20T06:44:56;89837.22;;;-2.16;86.82
22649;BME280;11491;41.942;24.220;2023-12-20T06:47:23;89817.34;;;-2.32;86.85
22649;BME280;11491;41.942;24.220;2023-12-20T06:49:50;89828.84;;;-2.23;86.45
22649;BME280;11491;41.942;24.220;2023-12-20T06:52:16;89832.97;;;-2.07;86.45
22649;BME280;11491;41.942;24.220;2023-12-20T06:54:43;89822.69;;;-1.93;86.46
22649;BME280;11491;41.942;24.220;2023-12-20T06:57:11;89832.56;;;-1.80;85.78
22649;BME280;11491;41.942;24.220;2023-12-20T06:59:39;89822.22;;;-1.56;85.46
22649;BME280;11491;41.942;24.220;2023-12-20T07:02:06;89823.25;;;-1.52;84.31
22649;BME280;11491;41.942;24.220;2023-12-20T07:04:33;89805.63;;;-1.46;84.54
22649;BME280;11491;41.942;24.220;2023-12-20T07:06:59;89807.34;;;-1.31;84.24
22649;BME280;11491;41.942;24.220;2023-12-20T07:09:26;89801.94;;;-1.11;83.28
22649;BME280;11491;41.942;24.220;2023-12-20T07:11:53;89789.44;;;-0.95;83.85
22649;BME280;11491;41.942;24.220;2023-12-20T07:14:21;89798.09;;;-0.65;83.84
22649;BME280;11491;41.942;24.220;2023-12-20T07:16:48;89799.44;;;-0.19;83.20
22649;BME280;11491;41.942;24.220;2023-12-20T07:19:15;89788.94;;;-0.19;82.31
22649;BME280;11491;41.942;24.220;2023-12-20T07:21:41;89763.50;;;-0.05;81.59
22649;BME280;11491;41.942;24.220;2023-12-20T07:24:08;89775.63;;;0.34;82.10
22649;BME280;11491;41.942;24.220;2023-12-20T07:26:35;89782.84;;;0.80;80.87
22649;BME280;11491;41.942;24.220;2023-12-20T07:29:03;89767.75;;;0.99;79.56
22649;BME280;11491;41.942;24.220;2023-12-20T07:31:31;89778.84;;;1.29;79.72
22649;BME280;11491;41.942;24.220;2023-12-20T07:33:58;89771.47;;;1.59;78.11
22649;BME280;11491;41.942;24.220;2023-12-20T07:36:24;89762.13;;;1.80;76.75
22649;BME280;11491;41.942;24.220;2023-12-20T07:38:51;89773.53;;;2.03;76.52
22649;BME280;11491;41.942;24.220;2023-12-20T07:41:18;89767.56;;;1.98;76.89
22649;BME280;11491;41.942;24.220;2023-12-20T07:43:46;89777.22;;;2.16;77.22
22649;BME280;11491;41.942;24.220;2023-12-20T07:46:13;89771.63;;;2.31;76.45
22649;BME280;11491;41.942;24.220;2023-12-20T07:48:41;89759.63;;;2.62;76.57
22649;BME280;11491;41.942;24.220;2023-12-20T07:51:08;89765.91;;;2.88;74.61
22649;BME280;11491;41.942;24.220;2023-12-20T07:53:35;89759.13;;;2.96;74.65
22649;BME280;11491;41.942;24.220;2023-12-20T07:56:13;89759.00;;;3.01;74.29
22649;BME280;11491;41.942;24.220;2023-12-20T07:58:40;89749.69;;;3.04;74.55
22649;BME280;11491;41.942;24.220;2023-12-20T08:01:07;89749.38;;;3.05;74.46
22649;BME280;11491;41.942;24.220;2023-12-20T08:03:34;89756.94;;;2.98;74.86
22649;BME280;11491;41.942;24.220;2023-12-20T08:06:02;89737.53;;;3.02;75.09
22649;BME280;11491;41.942;24.220;2023-12-20T08:08:29;89737.97;;;2.96;75.36
22649;BME280;11491;41.942;24.220;2023-12-20T08:10:56;89731.72;;;2.92;76.03
22649;BME280;11491;41.942;24.220;2023-12-20T08:13:25;89733.41;;;2.65;78.42
22649;BME280;11491;41.942;24.220;2023-12-20T08:15:52;89734.97;;;2.66;79.07
22649;BME280;11491;41.942;24.220;2023-12-20T08:18:21;89732.22;;;2.71;79.33
22649;BME280;11491;41.942;24.220;2023-12-20T08:20:47;89737.63;;;2.89;79.26
22649;BME280;11491;41.942;24.220;2023-12-20T08:23:16;89737.13;;;3.09;78.95
22649;BME280;11491;41.942;24.220;2023-12-20T08:25:43;89722.75;;;3.24;78.14
22649;BME280;11491;41.942;24.220;2023-12-20T08:28:09;89719.56;;;3.36;77.41
22649;BME280;11491;41.942;24.220;2023-12-20T08:30:36;89723.97;;;3.49;77.71
22649;BME280;11491;41.942;24.220;2023-12-20T08:33:03;89714.28;;;3.36;78.27
22649;BME280;11491;41.942;24.220;2023-12-20T08:35:30;89714.78;;;3.47;78.95
22649;BME280;11491;41.942;24.220;2023-12-20T08:37:57;89714.56;;;3.74;78.23
22649;BME280;11491;41.942;24.220;2023-12-20T08:40:25;89689.06;;;3.78;78.29
22649;BME280;11491;41.942;24.220;2023-12-20T08:42:52;89699.84;;;3.99;78.06
22649;BME280;11491;41.942;24.220;2023-12-20T08:45:18;89681.06;;;4.18;79.22
22649;BME280;11491;41.942;24.220;2023-12-20T08:47:45;89689.00;;;4.62;77.45
22649;BME280;11491;41.942;24.220;2023-12-20T08:50:12;89676.41;;;5.40;76.49
22649;BME280;11491;41.942;24.220;2023-12-20T08:52:40;89671.03;;;7.22;68.24
22649;BME280;11491;41.942;24.220;2023-12-20T08:55:07;89662.06;;;9.43;59.15
22649;BME280;11491;41.942;24.220;2023-12-20T08:57:36;89654.63;;;11.18;53.13
22649;BME280;11491;41.942;24.220;2023-12-20T09:00:04;89642.69;;;12.46;48.57
22649;BME280;11491;41.942;24.220;2023-12-20T09:02:33;89640.94;;;13.82;43.65
22649;BME280;11491;41.942;24.220;2023-12-20T09:05:01;89628.06;;;13.61;43.25
22649;BME280;11491;41.942;24.220;2023-12-20T09:07:28;89638.31;;;14.85;41.90
22649;BME280;11491;41.942;24.220;2023-12-20T09:09:57;89624.34;;;14.62;41.04
22649;BME280;11491;41.942;24.220;2023-12-20T09:12:24;89620.81;;;15.20;39.79
22649;BME280;11491;41.942;24.220;2023-12-20T09:14:52;89614.84;;;15.66;38.81
22649;BME280;11491;41.942;24.220;2023-12-20T09:17:19;89604.16;;;16.02;37.40
22649;BME280;11491;41.942;24.220;2023-12-20T09:19:48;89598.03;;;16.27;37.20
22649;BME280;11491;41.942;24.220;2023-12-20T09:22:15;89594.91;;;16.89;36.21
22649;BME280;11491;41.942;24.220;2023-12-20T09:24:42;89597.25;;;16.69;36.17
22649;BME280;11491;41.942;24.220;2023-12-20T09:27:10;89596.50;;;16.83;35.79
22649;BME280;11491;41.942;24.220;2023-12-20T09:29:37;89594.56;;;16.19;36.16
22649;BME280;11491;41.942;24.220;2023-12-20T09:32:05;89584.03;;;15.53;37.73
22649;BME280;11491;41.942;24.220;2023-12-20T09:34:32;89579.47;;;15.71;37.06
22649;BME280;11491;41.942;24.220;2023-12-20T09:36:59;89574.16;;;16.07;36.61
22649;BME280;11491;41.942;24.220;2023-12-20T09:39:25;89566.44;;;16.17;36.26
22649;BME280;11491;41.942;24.220;2023-12-20T09:42:00;89568.75;;;16.40;36.01
22649;BME280;11491;41.942;24.220;2023-12-20T09:44:27;89567.19;;;16.64;35.99
22649;BME280;11491;41.942;24.220;2023-12-20T09:46:55;89561.00;;;16.88;35.75
22649;BME280;11491;41.942;24.220;2023-12-20T09:49:23;89568.00;;;16.43;35.97
22649;BME280;11491;41.942;24.220;2023-12-20T09:51:52;89551.78;;;16.53;36.06
22649;BME280;11491;41.942;24.220;2023-12-20T09:54:20;89552.56;;;16.57;35.95
22649;BME280;11491;41.942;24.220;2023-12-20T09:56:47;89556.00;;;16.72;35.48
22649;BME280;11491;41.942;24.220;2023-12-20T09:59:14;89553.31;;;16.54;35.58
22649;BME280;11491;41.942;24.220;2023-12-20T10:01:42;89546.41;;;16.50;35.40
22649;BME280;11491;41.942;24.220;2023-12-20T10:04:10;89549.47;;;15.91;36.12
22649;BME280;11491;41.942;24.220;2023-12-20T10:06:39;89532.16;;;15.92;36.34
22649;BME280;11491;41.942;24.220;2023-12-20T10:09:06;89537.09;;;15.68;37.16
22649;BME280;11491;41.942;24.220;2023-12-20T10:11:34;89540.16;;;15.49;37.38
22649;BME280;11491;41.942;24.220;2023-12-20T10:14:02;89532.22;;;14.79;38.59
22649;BME280;11491;41.942;24.220;2023-12-20T10:16:31;89536.75;;;14.61;38.73
22649;BME280;11491;41.942;24.220;2023-12-20T10:18:59;89518.47;;;15.06;38.29
22649;BME280;11491;41.942;24.220;2023-12-20T10:21:27;89517.13;;;15.77;37.30
22649;BME280;11491;41.942;24.220;2023-12-20T10:23:56;89514.03;;;15.71;36.90
22649;BME280;11491;41.942;24.220;2023-12-20T10:26:24;89504.03;;;16.29;35.95
22649;BME280;11491;41.942;24.220;2023-12-20T10:28:53;89511.75;;;15.98;36.12
22649;BME280;11491;41.942;24.220;2023-12-20T10:31:26;89493.91;;;16.76;36.02
22649;BME280;11491;41.942;24.220;2023-12-20T10:33:56;89492.19;;;17.25;34.57
22649;BME280;11491;41.942;24.220;2023-12-20T10:36:23;89501.53;;;17.06;34.20
22649;BME280;11491;41.942;24.220;2023-12-20T10:38:52;89501.53;;;17.10;33.86
22649;BME280;11491;41.942;24.220;2023-12-20T10:41:25;89488.56;;;16.54;33.74
22649;BME280;11491;41.942;24.220;2023-12-20T10:43:54;89489.13;;;17.23;33.55
22649;BME280;11491;41.942;24.220;2023-12-20T10:46:21;89479.78;;;15.93;35.24
22649;BME280;11491;41.942;24.220;2023-12-20T10:48:51;89470.88;;;16.32;34.44
22649;BME280;11491;41.942;24.220;2023-12-20T10:51:18;89482.34;;;16.72;33.42
22649;BME280;11491;41.942;24.220;2023-12-20T10:53:47;89468.53;;;16.55;33.84
22649;BME280;11491;41.942;24.220;2023-12-20T10:56:16;89456.75;;;17.16;33.44
22649;BME280;11491;41.942;24.220;2023-12-20T10:58:45;89462.19;;;17.09;33.23
22649;BME280;11491;41.942;24.220;2023-12-20T11:01:13;89454.22;;;16.80;33.11
22649;BME280;11491;41.942;24.220;2023-12-20T11:03:43;89454.56;;;18.15;31.62
22649;BME280;11491;41.942;24.220;2023-12-20T11:06:27;89449.81;;;19.02;31.05
22649;BME280;11491;41.942;24.220;2023-12-20T11:09:01;89438.88;;;19.40;29.29
22649;BME280;11491;41.942;24.220;2023-12-20T11:11:38;89443.47;;;18.44;30.29
22649;BME280;11491;41.942;24.220;2023-12-20T11:14:15;89425.69;;;18.43;31.18
22649;BME280;11491;41.942;24.220;2023-12-20T11:16:43;89425.34;;;18.79;31.04
22649;BME280;11491;41.942;24.220;2023-12-20T11:19:11;89426.31;;;18.58;31.64
22649;BME280;11491;41.942;24.220;2023-12-20T11:21:40;89394.41;;;18.00;32.38
22649;BME280;11491;41.942;24.220;2023-12-20T11:24:06;89416.66;;;17.70;31.98
22649;BME280;11491;41.942;24.220;2023-12-20T11:26:33;89398.78;;;17.31;32.63
22649;BME280;11491;41.942;24.220;2023-12-20T11:29:33;89406.16;;;17.27;32.67
22649;BME280;11491;41.942;24.220;2023-12-20T11:32:01;89404.84;;;16.83;33.22
22649;BME280;11491;41.942;24.220;2023-12-20T11:34:33;89388.38;;;16.49;33.29
22649;BME280;11491;41.942;24.220;2023-12-20T11:37:02;89378.56;;;15.70;34.08
22649;BME280;11491;41.942;24.220;2023-12-20T11:39:30;89378.50;;;15.85;34.69
22649;BME280;11491;41.942;24.220;2023-12-20T11:41:57;89377.75;;;15.38;34.97
22649;BME280;11491;41.942;24.220;2023-12-20T11:44:30;89373.84;;;14.74;36.47
22649;BME280;11491;41.942;24.220;2023-12-20T11:46:59;89379.09;;;14.46;37.32
22649;BME280;11491;41.942;24.220;2023-12-20T11:49:26;89371.41;;;14.48;36.32
22649;BME280;11491;41.942;24.220;2023-12-20T11:51:54;89369.94;;;14.54;37.15
22649;BME280;11491;41.942;24.220;2023-12-20T11:54:21;89369.06;;;14.35;37.60
22649;BME280;11491;41.942;24.220;2023-12-20T11:56:48;89347.16;;;14.26;38.00
22649;BME280;11491;41.942;24.220;2023-12-20T11:59:15;89361.41;;;14.34;36.77
22649;BME280;11491;41.942;24.220;2023-12-20T12:01:48;89343.75;;;14.43;35.83
22649;BME280;11491;41.942;24.220;2023-12-20T12:04:16;89356.16;;;14.73;36.77
22649;BME280;11491;41.942;24.220;2023-12-20T12:06:44;89354.63;;;14.83;37.49
22649;BME280;11491;41.942;24.220;2023-12-20T12:09:11;89347.75;;;14.96;36.38
22649;BME280;11491;41.942;24.220;2023-12-20T12:11:37;89356.50;;;14.64;36.51
22649;BME280;11491;41.942;24.220;2023-12-20T12:14:04;89340.66;;;14.34;36.74
22649;BME280;11491;41.942;24.220;2023-12-20T12:16:31;89339.09;;;14.26;36.19
22649;BME280;11491;41.942;24.220;2023-12-20T12:18:58;89330.66;;;14.31;36.73
22649;BME280;11491;41.942;24.220;2023-12-20T12:21:27;89336.06;;;14.38;37.76
22649;BME280;11491;41.942;24.220;2023-12-20T12:23:54;89336.06;;;14.38;37.35
22649;BME280;11491;41.942;24.220;2023-12-20T12:26:20;89342.19;;;14.35;37.82
22649;BME280;11491;41.942;24.220;2023-12-20T12:28:47;89327.84;;;14.03;38.50
22649;BME280;11491;41.942;24.220;2023-12-20T12:31:14;89327.38;;;13.86;38.18
22649;BME280;11491;41.942;24.220;2023-12-20T12:33:42;89330.38;;;13.70;37.96
22649;BME280;11491;41.942;24.220;2023-12-20T12:36:09;89326.44;;;13.53;38.69
22649;BME280;11491;41.942;24.220;2023-12-20T12:38:38;89329.53;;;13.55;38.05
22649;BME280;11491;41.942;24.220;2023-12-20T12:41:04;89331.75;;;13.46;38.31
22649;BME280;11491;41.942;24.220;2023-12-20T12:43:32;89332.56;;;13.50;38.79
22649;BME280;11491;41.942;24.220;2023-12-20T12:45:59;89324.09;;;13.48;39.75
22649;BME280;11491;41.942;24.220;2023-12-20T12:48:26;89335.66;;;13.52;39.51
22649;BME280;11491;41.942;24.220;2023-12-20T12:50:54;89329.78;;;13.36;39.42